Time;durP1;ratioP1;P1;durP2;ratioP2;P2;SDS_P1;SDS_P2;PMS_P1;PMS_P2;Temp;Humidity;BMP_temperature;BMP_pressure;BME280_temperature;BME280_humidity;BME280_pressure;Samples;Min_cycle;Max_cycle;Signal;HPM_P1;HPM_P2
2022/09/10 00:01:26;;;;;;;0.10;0.10;;;12.30;99.90;;;;;;5069797;28;20466;-84
2022/09/10 00:03:53;;;;;;;0.20;0.20;;;12.10;99.90;;;;;;5066031;28;20182;-83
2022/09/10 00:06:19;;;;;;;0.10;0.10;;;12.30;99.90;;;;;;5067558;28;20551;-84
2022/09/10 00:08:46;;;;;;;0.10;0.10;;;12.40;99.90;;;;;;5068224;28;20523;-84
2022/09/10 00:11:13;;;;;;;0.10;0.10;;;12.30;99.90;;;;;;5066770;28;20489;-85
2022/09/10 00:13:40;;;;;;;0.10;0.10;;;12.40;99.90;;;;;;5067028;28;20472;-85
2022/09/10 00:16:08;;;;;;;0.10;0.10;;;12.30;99.90;;;;;;5061757;28;20453;-85
2022/09/10 00:18:35;;;;;;;0.10;0.10;;;12.20;99.90;;;;;;5061125;28;20472;-84
2022/09/10 00:21:09;;;;;;;0.10;0.10;;;12.30;99.90;;;;;;5065295;28;20524;-85
2022/09/10 00:23:35;;;;;;;0.10;0.10;;;12.60;99.90;;;;;;5057598;28;20458;-85
2022/09/10 00:26:28;;;;;;;0.10;0.10;;;12.90;99.90;;;;;;5060313;28;20535;-85
2022/09/10 00:28:55;;;;;;;0.10;0.10;;;12.60;99.90;;;;;;5065069;28;20447;-85
2022/09/10 00:31:22;;;;;;;0.10;0.10;;;12.50;99.90;;;;;;5065061;28;20459;-86
2022/09/10 00:33:49;;;;;;;0.10;0.10;;;12.30;99.90;;;;;;5067922;28;20479;-85
2022/09/10 00:36:19;;;;;;;0.17;0.17;;;12.20;99.90;;;;;;5064554;28;20440;-85
2022/09/10 00:38:45;;;;;;;0.10;0.10;;;12.30;99.90;;;;;;5065245;28;20890;-84
2022/09/10 00:41:11;;;;;;;0.10;0.10;;;12.30;99.90;;;;;;5063954;28;20453;-85
2022/09/10 00:43:57;;;;;;;0.20;0.20;;;12.20;99.90;;;;;;5064594;28;20447;-85
2022/09/10 00:46:31;;;;;;;0.10;0.10;;;12.40;99.90;;;;;;5062038;28;20439;-85
2022/09/10 00:48:59;;;;;;;0.10;0.10;;;12.40;99.90;;;;;;5069545;28;20443;-86
2022/09/10 00:51:29;;;;;;;0.10;0.10;;;12.30;99.90;;;;;;5065340;28;20441;-86
2022/09/10 00:53:55;;;;;;;0.10;0.10;;;12.20;99.90;;;;;;5058387;28;20535;-85
2022/09/10 00:56:21;;;;;;;0.10;0.10;;;12.20;99.90;;;;;;5062350;28;21012;-85
2022/09/10 00:58:48;;;;;;;0.10;0.10;;;12.20;99.90;;;;;;5063283;28;20494;-86
2022/09/10 01:01:14;;;;;;;0.10;0.10;;;12.20;99.90;;;;;;5056279;28;20181;-86
2022/09/10 01:03:42;;;;;;;0.10;0.10;;;12.10;99.90;;;;;;5052276;28;20510;-86
2022/09/10 01:06:07;;;;;;;0.10;0.10;;;12.10;99.90;;;;;;5056189;28;20454;-86
2022/09/10 01:08:33;;;;;;;0.10;0.10;;;12.10;99.90;;;;;;5064780;28;20536;-85
2022/09/10 01:11:10;;;;;;;0.10;0.10;;;12.10;99.90;;;;;;5066483;28;20193;-86
2022/09/10 01:14:04;;;;;;;0.10;0.10;;;12.20;99.90;;;;;;5057323;28;20188;-85
2022/09/10 01:16:42;;;;;;;0.10;0.10;;;12.20;99.90;;;;;;5052726;28;20444;-86
2022/09/10 01:19:34;;;;;;;0.10;0.10;;;12.40;99.90;;;;;;5063347;28;20487;-86
2022/09/10 01:22:24;;;;;;;0.10;0.10;;;12.60;99.90;;;;;;5061552;28;20508;-86
2022/09/10 01:25:13;;;;;;;0.20;0.20;;;12.50;99.90;;;;;;5064440;28;20456;-87
2022/09/10 01:27:49;;;;;;;0.10;0.10;;;12.50;99.90;;;;;;5063573;28;20444;-86
2022/09/10 01:30:36;;;;;;;0.10;0.10;;;12.70;99.90;;;;;;5060518;28;20474;-85
2022/09/10 01:33:12;;;;;;;0.10;0.10;;;12.80;99.90;;;;;;5059367;28;20716;-86
2022/09/10 01:35:43;;;;;;;0.10;0.10;;;12.70;99.90;;;;;;5063469;28;20440;-86
2022/09/10 01:38:20;;;;;;;0.10;0.10;;;12.80;99.90;;;;;;5060689;28;20487;-86
2022/09/10 01:40:47;;;;;;;0.10;0.10;;;12.80;99.90;;;;;;5057294;28;20481;-87
2022/09/10 01:43:13;;;;;;;0.10;0.10;;;12.60;99.90;;;;;;5062273;28;20455;-86
2022/09/10 01:46:23;;;;;;;0.10;0.10;;;12.40;99.90;;;;;;5063054;28;20447;-86
2022/09/10 01:49:13;;;;;;;0.10;0.10;;;12.40;99.90;;;;;;5016052;28;20433;-87
2022/09/10 01:52:15;;;;;;;0.10;0.10;;;12.40;99.90;;;;;;5064725;28;20436;-86
2022/09/10 01:55:06;;;;;;;0.10;0.10;;;12.30;99.90;;;;;;5053466;28;20448;-86
2022/09/10 01:57:47;;;;;;;0.10;0.10;;;12.30;99.90;;;;;;5063191;28;20543;-87
2022/09/10 02:00:16;;;;;;;0.10;0.10;;;12.30;99.90;;;;;;5059818;28;20512;-86
2022/09/10 02:03:03;;;;;;;0.10;0.10;;;12.30;99.90;;;;;;5052471;28;20529;-86
2022/09/10 02:05:30;;;;;;;0.10;0.10;;;12.30;99.90;;;;;;5056854;28;20447;-86
2022/09/10 02:08:00;;;;;;;0.10;0.10;;;12.30;99.90;;;;;;5064323;28;20534;-86
2022/09/10 02:10:27;;;;;;;0.10;0.10;;;12.30;99.90;;;;;;5058698;28;20448;-86
2022/09/10 02:12:53;;;;;;;0.20;0.20;;;12.40;99.90;;;;;;5064064;28;21011;-86
2022/09/10 02:15:21;;;;;;;0.20;0.20;;;12.50;99.90;;;;;;5063167;28;20528;-86
2022/09/10 02:17:48;;;;;;;0.20;0.20;;;12.60;99.90;;;;;;5065930;28;20209;-85
2022/09/10 02:20:14;;;;;;;0.10;0.10;;;12.50;99.90;;;;;;5064641;28;20951;-86
2022/09/10 02:22:45;;;;;;;0.10;0.10;;;12.50;99.90;;;;;;5061845;28;20452;-86
2022/09/10 02:25:11;;;;;;;0.10;0.10;;;12.50;99.90;;;;;;5056966;28;20463;-86
2022/09/10 02:27:37;;;;;;;0.10;0.10;;;12.50;99.90;;;;;;5059846;28;20448;-86
2022/09/10 02:30:04;;;;;;;0.10;0.10;;;12.50;99.90;;;;;;5065208;28;20233;-86
2022/09/10 02:32:29;;;;;;;0.10;0.10;;;12.50;99.90;;;;;;5062621;28;21255;-86
2022/09/10 02:34:55;;;;;;;0.10;0.10;;;12.50;99.90;;;;;;5071405;28;20454;-86
2022/09/10 02:37:20;;;;;;;0.20;0.20;;;12.60;99.90;;;;;;5067956;28;20201;-86
2022/09/10 02:39:46;;;;;;;0.10;0.10;;;12.60;99.90;;;;;;5071078;28;20269;-86
2022/09/10 02:42:15;;;;;;;0.10;0.10;;;12.60;99.90;;;;;;5069371;28;20189;-86
2022/09/10 02:44:41;;;;;;;0.10;0.10;;;12.60;99.90;;;;;;5066923;28;20527;-87
2022/09/10 02:47:06;;;;;;;0.10;0.10;;;12.60;99.90;;;;;;5061985;28;20489;-86
2022/09/10 02:49:33;;;;;;;0.10;0.10;;;12.50;99.90;;;;;;5069978;28;20194;-86
2022/09/10 02:52:01;;;;;;;0.10;0.10;;;12.50;99.90;;;;;;5059301;28;20765;-87
2022/09/10 02:54:27;;;;;;;0.10;0.10;;;12.60;99.90;;;;;;5064488;28;21042;-86
2022/09/10 02:56:52;;;;;;;0.10;0.10;;;12.50;99.90;;;;;;5068927;28;20448;-86
2022/09/10 02:59:18;;;;;;;0.10;0.10;;;12.60;99.90;;;;;;5066709;28;20217;-86
2022/09/10 03:01:44;;;;;;;0.20;0.20;;;12.60;99.90;;;;;;5064451;28;20665;-86
2022/09/10 03:04:09;;;;;;;0.10;0.10;;;12.60;99.90;;;;;;5079669;28;20273;-87
2022/09/10 03:06:35;;;;;;;0.10;0.10;;;12.70;99.90;;;;;;5068636;28;20186;-86
2022/09/10 03:09:01;;;;;;;0.10;0.10;;;12.70;99.90;;;;;;5071057;28;20666;-87
2022/09/10 03:11:26;;;;;;;0.10;0.10;;;12.70;99.90;;;;;;5066290;28;20485;-86
2022/09/10 03:13:52;;;;;;;0.10;0.10;;;12.70;99.90;;;;;;5059819;28;20201;-86
2022/09/10 03:16:18;;;;;;;0.10;0.10;;;12.70;99.90;;;;;;5067313;28;20549;-86
2022/09/10 03:18:44;;;;;;;0.10;0.10;;;12.70;99.90;;;;;;5069146;28;20490;-86
2022/09/10 03:21:17;;;;;;;0.10;0.10;;;12.70;99.90;;;;;;5068411;28;20475;-87
2022/09/10 03:23:46;;;;;;;0.10;0.10;;;12.70;99.90;;;;;;5067538;28;20255;-87
2022/09/10 03:26:13;;;;;;;0.10;0.10;;;12.80;99.90;;;;;;5066399;28;20456;-86
2022/09/10 03:28:40;;;;;;;0.10;0.10;;;12.80;99.90;;;;;;5066892;28;20505;-86
2022/09/10 03:31:06;;;;;;;0.10;0.10;;;12.90;99.90;;;;;;5060329;28;20551;-87
2022/09/10 03:33:32;;;;;;;0.10;0.10;;;12.90;99.90;;;;;;5066493;28;20523;-86
2022/09/10 03:35:59;;;;;;;0.10;0.10;;;12.90;99.90;;;;;;5058876;28;20447;-86
2022/09/10 03:38:26;;;;;;;0.10;0.10;;;13.00;99.90;;;;;;5065569;28;20533;-86
2022/09/10 03:40:52;;;;;;;0.10;0.10;;;13.00;99.90;;;;;;5052918;28;21246;-87
2022/09/10 03:43:19;;;;;;;0.10;0.10;;;13.00;99.90;;;;;;5065648;28;20510;-87
2022/09/10 03:45:47;;;;;;;0.10;0.10;;;13.00;99.90;;;;;;5067960;28;20182;-86
2022/09/10 03:48:14;;;;;;;0.10;0.10;;;13.00;99.90;;;;;;5068454;28;20444;-87
2022/09/10 03:50:41;;;;;;;0.10;0.10;;;13.00;99.90;;;;;;5069519;28;20440;-86
2022/09/10 03:53:07;;;;;;;0.10;0.10;;;13.00;99.90;;;;;;5065382;28;20448;-86
2022/09/10 03:55:33;;;;;;;0.10;0.10;;;13.00;99.90;;;;;;5066063;28;20509;-86
2022/09/10 03:57:58;;;;;;;0.10;0.10;;;13.00;99.90;;;;;;5064428;28;20225;-87
2022/09/10 04:00:25;;;;;;;0.10;0.10;;;13.10;99.90;;;;;;5060852;28;20437;-86
2022/09/10 04:02:51;;;;;;;0.10;0.10;;;13.10;99.90;;;;;;5063963;28;20192;-86
2022/09/10 04:05:17;;;;;;;0.10;0.10;;;13.10;99.90;;;;;;5064397;28;20878;-86
2022/09/10 04:07:42;;;;;;;0.10;0.10;;;13.10;99.90;;;;;;5068968;28;20243;-86
2022/09/10 04:10:08;;;;;;;0.10;0.10;;;13.20;99.90;;;;;;5066159;28;20432;-86
2022/09/10 04:12:34;;;;;;;0.10;0.10;;;13.20;99.90;;;;;;5067404;28;20193;-87
2022/09/10 04:15:02;;;;;;;0.10;0.10;;;13.20;99.90;;;;;;5068892;28;20192;-86
2022/09/10 04:17:27;;;;;;;0.10;0.10;;;13.20;99.90;;;;;;5063380;28;21205;-87
2022/09/10 04:19:53;;;;;;;0.10;0.10;;;13.20;99.90;;;;;;5066686;28;20451;-86
2022/09/10 04:22:18;;;;;;;0.17;0.17;;;13.20;99.90;;;;;;5068178;28;20197;-87
2022/09/10 04:24:44;;;;;;;0.10;0.10;;;13.20;99.90;;;;;;5063162;28;20192;-88
2022/09/10 04:27:09;;;;;;;0.10;0.10;;;13.20;99.90;;;;;;5066922;28;20552;-87
2022/09/10 04:29:36;;;;;;;0.10;0.10;;;13.20;99.90;;;;;;5064798;28;20222;-86
2022/09/10 04:32:02;;;;;;;0.10;0.10;;;13.20;99.90;;;;;;5064750;28;20549;-88
2022/09/10 04:34:28;;;;;;;0.10;0.10;;;13.20;99.90;;;;;;5067653;28;20447;-86
2022/09/10 04:36:53;;;;;;;0.10;0.10;;;13.20;99.90;;;;;;5066651;28;20198;-88
2022/09/10 04:39:19;;;;;;;0.10;0.10;;;13.20;99.90;;;;;;5066279;28;22089;-89
2022/09/10 04:41:44;;;;;;;0.10;0.10;;;13.20;99.90;;;;;;5063064;28;20239;-86
2022/09/10 04:44:10;;;;;;;0.10;0.10;;;13.20;99.90;;;;;;5065820;28;20234;-86
2022/09/10 04:46:35;;;;;;;0.10;0.10;;;13.20;99.90;;;;;;5068678;28;20194;-86
2022/09/10 04:49:01;;;;;;;0.10;0.10;;;13.20;99.90;;;;;;5063231;28;20194;-87
2022/09/10 04:51:27;;;;;;;0.10;0.10;;;13.20;99.90;;;;;;5067527;28;20696;-86
2022/09/10 04:53:53;;;;;;;0.10;0.10;;;13.20;99.90;;;;;;5063672;28;20444;-88
2022/09/10 04:56:19;;;;;;;0.10;0.10;;;13.20;99.90;;;;;;5079002;28;20182;-86
2022/09/10 04:58:45;;;;;;;0.10;0.10;;;13.20;99.90;;;;;;5059768;28;20210;-86
2022/09/10 05:01:11;;;;;;;0.10;0.10;;;13.20;99.90;;;;;;5052726;28;20472;-88
2022/09/10 05:03:36;;;;;;;0.10;0.10;;;13.20;99.90;;;;;;5059575;28;20537;-86
2022/09/10 05:06:02;;;;;;;0.10;0.10;;;13.20;99.90;;;;;;5055326;28;20189;-87
2022/09/10 05:08:29;;;;;;;0.10;0.10;;;13.20;99.90;;;;;;5064865;28;20657;-88
2022/09/10 05:10:54;;;;;;;0.10;0.10;;;13.20;99.90;;;;;;5066293;28;20975;-88
2022/09/10 05:13:20;;;;;;;0.10;0.10;;;13.20;99.90;;;;;;5065733;28;20471;-86
2022/09/10 05:15:45;;;;;;;0.10;0.10;;;13.20;99.90;;;;;;5061671;28;20231;-86
2022/09/10 05:18:11;;;;;;;0.10;0.10;;;13.30;99.90;;;;;;5056529;28;20262;-85
2022/09/10 05:20:36;;;;;;;0.10;0.10;;;13.30;99.90;;;;;;5061608;28;20826;-85
2022/09/10 05:23:02;;;;;;;0.10;0.10;;;13.30;99.90;;;;;;5062612;28;20196;-85
2022/09/10 05:25:29;;;;;;;0.10;0.10;;;13.30;99.90;;;;;;5063340;28;20182;-85
2022/09/10 05:27:54;;;;;;;0.10;0.10;;;13.40;99.90;;;;;;5067635;28;20970;-85
2022/09/10 05:30:20;;;;;;;0.10;0.10;;;13.40;99.90;;;;;;5063747;28;20472;-85
2022/09/10 05:32:46;;;;;;;0.10;0.10;;;13.40;99.90;;;;;;5065913;28;20208;-85
2022/09/10 05:35:12;;;;;;;0.10;0.10;;;13.40;99.90;;;;;;5062696;28;20386;-86
2022/09/10 05:37:38;;;;;;;0.10;0.10;;;13.40;99.90;;;;;;5066609;28;20174;-84
2022/09/10 05:40:06;;;;;;;0.10;0.10;;;13.50;99.90;;;;;;5059737;28;20450;-84
2022/09/10 05:42:32;;;;;;;0.10;0.10;;;13.50;99.90;;;;;;5066785;28;20521;-85
2022/09/10 05:44:57;;;;;;;0.10;0.10;;;13.50;99.90;;;;;;5067149;28;20744;-84
2022/09/10 05:47:23;;;;;;;0.10;0.10;;;13.60;99.90;;;;;;5069412;28;20272;-84
2022/09/10 05:49:48;;;;;;;0.10;0.10;;;13.60;99.90;;;;;;5060087;28;20182;-83
2022/09/10 05:52:14;;;;;;;0.10;0.10;;;13.70;99.90;;;;;;5067115;28;20251;-85
2022/09/10 05:54:40;;;;;;;0.10;0.10;;;13.70;99.90;;;;;;5065632;28;20232;-86
2022/09/10 05:57:06;;;;;;;0.10;0.10;;;13.70;99.90;;;;;;5065944;28;20444;-86
2022/09/10 05:59:33;;;;;;;0.10;0.10;;;13.80;99.90;;;;;;5066428;28;20236;-88
2022/09/10 06:01:59;;;;;;;0.10;0.10;;;13.80;99.90;;;;;;5066920;28;20989;-85
2022/09/10 06:04:25;;;;;;;0.10;0.10;;;13.80;99.90;;;;;;5062401;28;20437;-86
2022/09/10 06:06:50;;;;;;;0.10;0.10;;;13.90;99.90;;;;;;5071140;28;20555;-87
2022/09/10 06:09:18;;;;;;;0.10;0.10;;;13.90;99.90;;;;;;5061525;28;20264;-87
2022/09/10 06:11:43;;;;;;;0.10;0.10;;;13.90;99.90;;;;;;5060334;28;20296;-88
2022/09/10 06:14:09;;;;;;;0.10;0.10;;;13.90;99.90;;;;;;5070662;28;21004;-87
2022/09/10 06:16:34;;;;;;;0.10;0.10;;;13.90;99.90;;;;;;5066816;28;20277;-87
2022/09/10 06:19:00;;;;;;;0.10;0.10;;;13.90;99.90;;;;;;5065467;28;20226;-88
2022/09/10 06:21:27;;;;;;;0.10;0.10;;;13.90;99.90;;;;;;5064617;28;20217;-87
2022/09/10 06:23:54;;;;;;;0.10;0.10;;;13.90;99.90;;;;;;5069126;28;20197;-87
2022/09/10 06:26:19;;;;;;;0.10;0.10;;;13.90;99.90;;;;;;5063401;28;20432;-88
2022/09/10 06:28:45;;;;;;;0.10;0.10;;;13.80;99.90;;;;;;5066870;28;20448;-89
2022/09/10 06:31:15;;;;;;;0.10;0.10;;;13.80;99.90;;;;;;5065955;28;20782;-89
2022/09/10 06:33:41;;;;;;;0.10;0.10;;;13.80;99.90;;;;;;5068726;28;20936;-89
2022/09/10 06:36:08;;;;;;;0.10;0.10;;;13.90;99.90;;;;;;5065876;28;20444;-87
2022/09/10 06:38:34;;;;;;;0.10;0.10;;;13.90;99.90;;;;;;5067529;28;20521;-87
2022/09/10 06:41:03;;;;;;;0.10;0.10;;;13.80;99.90;;;;;;5065054;28;21325;-87
2022/09/10 06:43:35;;;;;;;0.10;0.10;;;13.80;99.90;;;;;;5068409;28;20978;-86
2022/09/10 06:46:01;;;;;;;0.10;0.10;;;13.90;99.90;;;;;;5065795;28;20509;-88
2022/09/10 06:48:27;;;;;;;0.10;0.10;;;13.90;99.90;;;;;;5064713;28;20452;-89
2022/09/10 06:50:53;;;;;;;0.10;0.10;;;13.90;99.90;;;;;;5068439;28;20467;-87
2022/09/10 06:53:20;;;;;;;0.10;0.10;;;13.90;99.90;;;;;;5070595;28;20440;-87
2022/09/10 06:55:47;;;;;;;0.10;0.10;;;14.00;99.90;;;;;;5071346;28;20443;-88
2022/09/10 06:58:13;;;;;;;0.10;0.10;;;14.00;99.90;;;;;;5070865;28;20915;-88
2022/09/10 07:00:38;;;;;;;0.10;0.10;;;14.00;99.90;;;;;;5070267;28;20581;-87
2022/09/10 07:03:04;;;;;;;0.10;0.10;;;14.10;99.90;;;;;;5072188;28;20174;-89
2022/09/10 07:05:32;;;;;;;0.10;0.10;;;14.10;99.90;;;;;;5067635;28;20221;-87
2022/09/10 07:07:57;;;;;;;0.10;0.10;;;14.10;99.90;;;;;;5070906;28;20719;-88
2022/09/10 07:10:23;;;;;;;0.10;0.10;;;14.20;99.90;;;;;;5068999;28;20428;-88
2022/09/10 07:12:49;;;;;;;0.10;0.10;;;14.30;99.90;;;;;;5068292;28;20194;-88
2022/09/10 07:15:14;;;;;;;0.10;0.10;;;14.30;99.90;;;;;;5070626;28;20311;-88
2022/09/10 07:17:40;;;;;;;0.10;0.10;;;14.30;99.90;;;;;;5065219;28;20193;-88
2022/09/10 07:20:06;;;;;;;0.10;0.10;;;14.30;99.90;;;;;;5059180;28;20320;-89
2022/09/10 07:22:31;;;;;;;0.10;0.10;;;14.40;99.90;;;;;;5059893;28;20555;-88
2022/09/10 07:25:00;;;;;;;0.10;0.10;;;14.50;99.90;;;;;;5083241;28;20884;-88
2022/09/10 07:27:25;;;;;;;0.10;0.10;;;14.60;99.90;;;;;;5069919;28;20657;-88
2022/09/10 07:29:51;;;;;;;0.10;0.10;;;14.70;99.90;;;;;;5064560;28;20468;-95
2022/09/10 07:32:17;;;;;;;0.10;0.10;;;14.80;99.90;;;;;;5072492;28;20198;-94
2022/09/10 07:34:43;;;;;;;0.10;0.10;;;14.80;99.90;;;;;;5074008;28;20522;-96
2022/09/10 07:37:08;;;;;;;0.10;0.10;;;14.80;99.90;;;;;;5073146;28;20448;-94
2022/09/10 07:39:34;;;;;;;0.10;0.10;;;14.90;99.90;;;;;;5074947;28;20480;-95
2022/09/10 07:41:59;;;;;;;0.10;0.10;;;14.90;99.90;;;;;;5072177;28;20189;-96
2022/09/10 07:44:25;;;;;;;0.10;0.10;;;14.90;99.90;;;;;;5072570;28;20760;-94
2022/09/10 07:46:51;;;;;;;0.10;0.10;;;15.00;99.90;;;;;;5069316;28;20194;-94
2022/09/10 07:49:17;;;;;;;0.10;0.10;;;14.90;99.90;;;;;;5073485;28;20182;-93
2022/09/10 07:51:42;;;;;;;0.10;0.10;;;15.00;99.90;;;;;;5071587;28;20440;-94
2022/09/10 07:54:07;;;;;;;0.10;0.10;;;15.00;99.90;;;;;;5068228;28;20181;-94
2022/09/10 07:56:33;;;;;;;0.10;0.10;;;15.00;99.90;;;;;;5072995;28;20194;-94
2022/09/10 07:59:01;;;;;;;0.10;0.10;;;15.00;99.90;;;;;;5069822;28;20221;-93
2022/09/10 08:01:27;;;;;;;0.10;0.10;;;15.10;99.90;;;;;;5061577;28;20545;-92
2022/09/10 08:03:57;;;;;;;0.10;0.10;;;15.10;99.90;;;;;;5061035;28;20444;-94
2022/09/10 08:06:23;;;;;;;0.10;0.10;;;15.10;99.90;;;;;;5072103;28;20190;-92
2022/09/10 08:08:49;;;;;;;0.10;0.10;;;15.20;99.90;;;;;;5064450;28;20449;-94
2022/09/10 08:11:16;;;;;;;0.10;0.10;;;15.20;99.90;;;;;;5068262;28;20269;-94
2022/09/10 08:13:45;;;;;;;0.10;0.10;;;15.10;99.90;;;;;;5068807;28;20470;-96
2022/09/10 08:16:14;;;;;;;0.10;0.10;;;15.10;99.90;;;;;;5071073;28;20541;-92
2022/09/10 08:18:40;;;;;;;0.10;0.10;;;15.20;99.90;;;;;;5070206;28;20476;-96
2022/09/10 08:21:09;;;;;;;0.10;0.10;;;15.30;99.90;;;;;;5071851;28;20475;-96
2022/09/10 08:23:38;;;;;;;0.10;0.10;;;15.30;99.90;;;;;;5071871;28;20452;-85
2022/09/10 08:26:05;;;;;;;0.10;0.10;;;15.40;99.90;;;;;;5057557;28;20476;-85
2022/09/10 08:28:31;;;;;;;0.10;0.10;;;15.50;99.90;;;;;;5058740;28;20529;-91
2022/09/10 08:30:59;;;;;;;0.10;0.10;;;15.40;99.90;;;;;;5059948;28;20548;-88
2022/09/10 08:33:24;;;;;;;0.10;0.10;;;15.40;99.90;;;;;;5059037;28;20509;-86
2022/09/10 08:35:55;;;;;;;0.10;0.10;;;15.60;99.90;;;;;;5058673;28;20440;-89
2022/09/10 08:38:39;;;;;;;0.10;0.10;;;15.80;99.90;;;;;;5057154;28;20201;-87
2022/09/10 08:41:08;;;;;;;0.10;0.10;;;15.80;99.90;;;;;;5059291;28;20785;-84
2022/09/10 08:43:47;;;;;;;0.10;0.10;;;16.10;99.90;;;;;;5058175;28;20444;-83
2022/09/10 08:46:21;;;;;;;0.10;0.10;;;16.10;99.90;;;;;;5057778;28;20459;-85
2022/09/10 08:48:51;;;;;;;0.10;0.10;;;16.20;99.90;;;;;;5058852;28;20467;-85
2022/09/10 08:51:26;;;;;;;0.10;0.10;;;16.40;99.90;;;;;;5060676;28;20457;-85
2022/09/10 08:54:04;;;;;;;0.10;0.10;;;16.40;99.90;;;;;;5064119;28;20454;-85
2022/09/10 08:56:31;;;;;;;0.10;0.10;;;16.50;99.90;;;;;;5067973;28;20459;-86
2022/09/10 08:59:01;;;;;;;0.10;0.10;;;16.50;99.90;;;;;;5069109;28;20513;-86
2022/09/10 09:02:04;;;;;;;0.10;0.10;;;16.50;99.90;;;;;;5068575;28;20440;-86
2022/09/10 09:04:42;;;;;;;0.10;0.10;;;16.60;99.90;;;;;;5027208;28;20471;-86
2022/09/10 09:07:18;;;;;;;0.10;0.10;;;16.70;99.90;;;;;;5050249;28;20445;-86
2022/09/10 09:09:47;;;;;;;0.10;0.10;;;16.80;99.90;;;;;;5066481;28;20439;-86
2022/09/10 09:12:28;;;;;;;0.10;0.10;;;16.90;99.90;;;;;;5063960;28;20452;-85
2022/09/10 09:15:12;;;;;;;0.10;0.10;;;16.90;99.90;;;;;;5060951;28;20989;-86
2022/09/10 09:18:23;;;;;;;0.10;0.10;;;17.00;99.90;;;;;;5067133;28;20494;-85
2022/09/10 09:20:55;;;;;;;0.10;0.10;;;17.10;99.90;;;;;;5062943;28;20456;-85
2022/09/10 09:23:41;;;;;;;0.10;0.10;;;17.10;99.90;;;;;;5060304;28;20463;-86
2022/09/10 09:26:12;;;;;;;0.10;0.10;;;17.20;99.90;;;;;;5084687;28;20440;-85
2022/09/10 09:29:01;;;;;;;0.10;0.00;;;17.20;99.90;;;;;;5069175;28;20503;-84
2022/09/10 09:31:36;;;;;;;0.10;0.10;;;17.50;99.90;;;;;;5069061;28;20478;-86
2022/09/10 09:34:18;;;;;;;0.10;0.00;;;17.60;99.90;;;;;;5068293;28;20444;-86
2022/09/10 09:36:48;;;;;;;0.10;0.10;;;17.70;99.90;;;;;;5069631;28;20527;-86
2022/09/10 09:39:26;;;;;;;0.10;0.10;;;17.80;99.90;;;;;;5069487;28;20480;-86
2022/09/10 09:42:13;;;;;;;0.10;0.10;;;17.80;99.90;;;;;;5072466;28;20467;-86
2022/09/10 09:44:53;;;;;;;0.10;0.10;;;17.90;99.90;;;;;;5063722;28;20448;-85
2022/09/10 09:47:19;;;;;;;0.10;0.00;;;18.00;99.90;;;;;;5070975;28;20436;-86
2022/09/10 09:49:44;;;;;;;0.10;0.10;;;18.10;99.90;;;;;;5057420;28;20451;-86
2022/09/10 09:52:17;;;;;;;0.10;0.10;;;18.10;99.90;;;;;;5072373;28;20193;-86
2022/09/10 09:54:47;;;;;;;0.10;0.00;;;18.20;99.90;;;;;;5070510;28;20190;-86
2022/09/10 09:57:19;;;;;;;0.10;0.10;;;18.10;99.90;;;;;;5063657;28;20440;-86
2022/09/10 09:59:46;;;;;;;0.10;0.10;;;18.00;99.90;;;;;;5065456;28;20550;-87
2022/09/10 10:02:18;;;;;;;0.10;0.00;;;17.90;99.90;;;;;;5068724;28;20454;-87
2022/09/10 10:05:23;;;;;;;0.10;0.10;;;17.80;99.90;;;;;;5072488;28;20444;-86
2022/09/10 10:07:49;;;;;;;0.10;0.00;;;17.80;99.90;;;;;;5055911;28;20470;-87
2022/09/10 10:10:26;;;;;;;0.10;0.00;;;17.90;99.90;;;;;;5072585;28;20416;-86
2022/09/10 10:12:53;;;;;;;0.10;0.07;;;17.90;99.90;;;;;;5068112;28;20347;-86
2022/09/10 10:15:41;;;;;;;0.10;0.10;;;17.80;99.90;;;;;;5060133;28;20474;-86
2022/09/10 10:18:21;;;;;;;0.10;0.10;;;17.70;99.90;;;;;;5072653;28;20460;-87
2022/09/10 10:21:11;;;;;;;0.10;0.00;;;17.80;99.90;;;;;;5065674;28;20452;-86
2022/09/10 10:23:37;;;;;;;0.10;0.00;;;17.70;99.90;;;;;;5078781;28;20474;-83
2022/09/10 10:26:16;;;;;;;0.10;0.10;;;17.70;99.90;;;;;;5070072;28;20451;-84
2022/09/10 10:28:50;;;;;;;0.10;0.10;;;17.70;99.90;;;;;;5058479;28;20471;-83
2022/09/10 10:31:17;;;;;;;0.10;0.00;;;17.70;99.90;;;;;;5070320;28;20528;-83
2022/09/10 10:34:08;;;;;;;0.10;0.10;;;17.60;99.90;;;;;;5070862;28;20440;-83
2022/09/10 10:36:58;;;;;;;0.10;0.10;;;17.60;99.90;;;;;;5063667;28;20455;-83
2022/09/10 10:39:59;;;;;;;0.10;0.07;;;17.70;99.90;;;;;;5069517;28;20949;-83
2022/09/10 10:42:29;;;;;;;0.10;0.10;;;17.80;99.90;;;;;;5067243;28;20983;-85
2022/09/10 10:45:00;;;;;;;0.10;0.10;;;18.00;99.90;;;;;;5065747;28;20436;-84
2022/09/10 10:47:42;;;;;;;0.10;0.10;;;18.20;99.90;;;;;;5078552;28;20444;-85
2022/09/10 10:50:14;;;;;;;0.10;0.00;;;18.30;99.90;;;;;;5053208;28;20524;-83
2022/09/10 10:53:17;;;;;;;0.10;0.00;;;18.40;99.90;;;;;;5066092;28;20864;-83
2022/09/10 10:55:55;;;;;;;0.10;0.00;;;18.50;99.90;;;;;;5065057;28;20489;-83
2022/09/10 10:58:40;;;;;;;0.10;0.10;;;18.70;99.90;;;;;;5068377;28;20533;-84
2022/09/10 11:01:21;;;;;;;0.10;0.00;;;19.10;99.90;;;;;;5071920;28;20428;-84
2022/09/10 11:04:05;;;;;;;0.10;0.00;;;19.50;99.90;;;;;;5058964;28;20570;-82
2022/09/10 11:06:45;;;;;;;0.10;0.00;;;19.70;99.90;;;;;;5056671;28;20444;-83
2022/09/10 11:09:37;;;;;;;0.10;0.00;;;20.70;99.90;;;;;;5059809;28;20459;-84
2022/09/10 11:12:26;;;;;;;0.10;0.00;;;21.40;99.90;;;;;;5056619;28;20562;-82
2022/09/10 11:15:27;;;;;;;0.10;0.00;;;22.10;99.90;;;;;;5061856;28;20884;-83
2022/09/10 11:18:06;;;;;;;0.10;0.00;;;22.30;99.90;;;;;;5052696;28;20844;-82
2022/09/10 11:20:37;;;;;;;0.00;0.00;;;22.70;99.90;;;;;;5060161;28;20435;-82
2022/09/10 11:23:19;;;;;;;0.00;0.00;;;22.40;99.90;;;;;;5060487;28;20431;-82
2022/09/10 11:25:56;;;;;;;0.00;0.00;;;22.00;99.90;;;;;;5060560;28;20440;-82
2022/09/10 11:28:31;;;;;;;0.10;0.00;;;22.50;99.90;;;;;;5062411;28;20435;-82
2022/09/10 11:31:16;;;;;;;0.10;0.00;;;23.00;99.90;;;;;;5061694;28;20494;-82
2022/09/10 11:33:56;;;;;;;0.00;0.00;;;23.30;99.90;;;;;;5059377;28;20440;-82
2022/09/10 11:36:45;;;;;;;0.00;0.00;;;23.40;99.90;;;;;;5061675;28;20483;-83
2022/09/10 11:39:32;;;;;;;0.10;0.10;;;23.70;99.90;;;;;;5061026;28;20484;-82
2022/09/10 11:42:02;;;;;;;0.00;0.00;;;24.10;99.90;;;;;;5062514;28;20518;-82
2022/09/10 11:44:41;;;;;;;0.00;0.00;;;24.10;99.90;;;;;;5059926;28;20454;-82
2022/09/10 11:47:28;;;;;;;0.00;0.00;;;23.60;99.90;;;;;;5059473;28;20432;-82
2022/09/10 11:49:59;;;;;;;0.00;0.00;;;23.80;99.90;;;;;;5054537;28;20440;-81
2022/09/10 11:52:28;;;;;;;0.07;0.00;;;23.90;99.90;;;;;;5054966;28;20472;-82
2022/09/10 11:54:55;;;;;;;0.00;0.00;;;23.60;99.90;;;;;;5055000;28;20441;-81
2022/09/10 11:57:58;;;;;;;0.10;0.00;;;24.30;99.90;;;;;;5055106;28;21151;-82
2022/09/10 12:00:24;;;;;;;0.00;0.00;;;24.70;99.90;;;;;;5067917;28;20955;-82
2022/09/10 12:03:05;;;;;;;0.00;0.00;;;25.10;99.90;;;;;;5067906;28;20428;-82
2022/09/10 12:05:58;;;;;;;0.00;0.00;;;25.30;99.90;;;;;;5066115;28;20991;-82
2022/09/10 12:08:55;;;;;;;0.00;0.00;;;25.50;99.90;;;;;;5065224;28;20432;-82
2022/09/10 12:11:42;;;;;;;0.10;0.00;;;25.30;99.90;;;;;;5066055;28;20451;-81
2022/09/10 12:14:15;;;;;;;0.07;0.00;;;24.50;99.90;;;;;;5064047;28;20539;-82
2022/09/10 12:16:44;;;;;;;0.10;0.00;;;24.10;99.90;;;;;;5066305;28;20439;-82
2022/09/10 12:19:23;;;;;;;0.00;0.00;;;24.60;99.90;;;;;;5060757;28;20521;-81
2022/09/10 12:21:57;;;;;;;0.00;0.00;;;25.40;99.90;;;;;;5064270;28;20420;-81
2022/09/10 12:24:36;;;;;;;0.00;0.00;;;26.00;99.90;;;;;;5052698;28;20429;-82
2022/09/10 12:27:05;;;;;;;0.00;0.00;;;26.50;99.90;;;;;;5069445;28;20450;-82
2022/09/10 12:29:36;;;;;;;0.10;0.00;;;26.50;99.90;;;;;;5059750;28;20477;-82
2022/09/10 12:32:11;;;;;;;0.00;0.00;;;26.60;99.90;;;;;;5056860;28;20457;-83
2022/09/10 12:34:37;;;;;;;0.00;0.00;;;26.70;99.90;;;;;;5058239;28;20887;-83
2022/09/10 12:37:03;;;;;;;0.00;0.00;;;26.80;99.90;;;;;;5056869;28;20497;-82
2022/09/10 12:39:29;;;;;;;0.00;0.00;;;26.50;99.90;;;;;;5054133;28;20538;-82
2022/09/10 12:42:22;;;;;;;0.00;0.00;;;26.70;99.90;;;;;;5063819;28;20563;-83
2022/09/10 12:44:48;;;;;;;0.00;0.00;;;26.60;99.90;;;;;;5055341;28;21242;-83
2022/09/10 12:47:16;;;;;;;0.00;0.00;;;27.00;99.90;;;;;;5051916;28;20500;-83
2022/09/10 12:49:56;;;;;;;0.00;0.00;;;27.40;99.90;;;;;;5058473;28;20190;-83
2022/09/10 12:52:42;;;;;;;0.00;0.00;;;27.50;99.90;;;;;;5051974;28;20454;-82
2022/09/10 12:55:42;;;;;;;0.00;0.00;;;27.60;99.90;;;;;;5056482;28;20505;-82
2022/09/10 12:58:29;;;;;;;0.10;0.00;;;26.90;99.90;;;;;;5062617;28;20513;-84
2022/09/10 13:00:54;;;;;;;0.00;0.00;;;27.60;99.90;;;;;;5057885;28;20591;-84
2022/09/10 13:03:22;;;;;;;0.00;0.00;;;27.60;99.90;;;;;;5060220;28;20881;-84
2022/09/10 13:05:53;;;;;;;0.00;0.00;;;28.10;99.90;;;;;;5053792;28;20204;-83
2022/09/10 13:08:42;;;;;;;0.00;0.00;;;27.60;99.90;;;;;;5055776;28;20682;-83
2022/09/10 13:11:23;;;;;;;0.00;0.00;;;28.40;99.90;;;;;;5059509;28;20466;-82